sensor_id;sensor_type;location;lat;lon;timestamp;temperature;humidity
29003;DHT22;16102;57.138;-2.118;2023-07-16T00:00:00;14.60;1.00
29003;DHT22;16102;57.138;-2.118;2023-07-16T00:02:27;14.60;1.00
29003;DHT22;16102;57.138;-2.118;2023-07-16T00:04:54;14.60;1.00
29003;DHT22;16102;57.138;-2.118;2023-07-16T00:07:21;14.70;1.00
29003;DHT22;16102;57.138;-2.118;2023-07-16T00:09:48;14.60;1.00
29003;DHT22;16102;57.138;-2.118;2023-07-16T00:12:15;14.50;1.00
29003;DHT22;16102;57.138;-2.118;2023-07-16T00:14:42;14.60;1.00
29003;DHT22;16102;57.138;-2.118;2023-07-16T00:17:09;14.60;1.00
29003;DHT22;16102;57.138;-2.118;2023-07-16T00:19:36;14.40;1.00
29003;DHT22;16102;57.138;-2.118;2023-07-16T00:22:03;14.40;1.00
29003;DHT22;16102;57.138;-2.118;2023-07-16T00:24:30;14.40;1.00
29003;DHT22;16102;57.138;-2.118;2023-07-16T00:26:57;14.40;1.00
29003;DHT22;16102;57.138;-2.118;2023-07-16T00:29:24;14.50;1.00
29003;DHT22;16102;57.138;-2.118;2023-07-16T00:31:51;14.40;1.00
29003;DHT22;16102;57.138;-2.118;2023-07-16T00:34:18;14.40;1.00
29003;DHT22;16102;57.138;-2.118;2023-07-16T00:36:45;14.40;1.00
29003;DHT22;16102;57.138;-2.118;2023-07-16T00:39:12;14.40;1.00
29003;DHT22;16102;57.138;-2.118;2023-07-16T00:41:39;14.20;1.00
29003;DHT22;16102;57.138;-2.118;2023-07-16T00:44:06;14.00;1.00
29003;DHT22;16102;57.138;-2.118;2023-07-16T00:46:33;13.80;1.00
29003;DHT22;16102;57.138;-2.118;2023-07-16T00:49:01;13.90;1.00
29003;DHT22;16102;57.138;-2.118;2023-07-16T00:51:28;13.70;1.00
29003;DHT22;16102;57.138;-2.118;2023-07-16T00:53:56;13.70;11.10
29003;DHT22;16102;57.138;-2.118;2023-07-16T00:56:23;13.70;8.60
29003;DHT22;16102;57.138;-2.118;2023-07-16T00:58:50;13.80;15.80
29003;DHT22;16102;57.138;-2.118;2023-07-16T01:01:17;14.00;16.50
29003;DHT22;16102;57.138;-2.118;2023-07-16T01:03:44;13.90;2.90
29003;DHT22;16102;57.138;-2.118;2023-07-16T01:06:21;13.80;6.40
29003;DHT22;16102;57.138;-2.118;2023-07-16T01:09:19;13.90;10.30
29003;DHT22;16102;57.138;-2.118;2023-07-16T01:11:46;14.10;10.70
29003;DHT22;16102;57.138;-2.118;2023-07-16T01:14:16;14.10;3.20
29003;DHT22;16102;57.138;-2.118;2023-07-16T01:16:43;14.20;1.00
29003;DHT22;16102;57.138;-2.118;2023-07-16T01:19:11;14.30;1.00
29003;DHT22;16102;57.138;-2.118;2023-07-16T01:21:46;14.30;1.00
29003;DHT22;16102;57.138;-2.118;2023-07-16T01:30:15;14.30;1.00
29003;DHT22;16102;57.138;-2.118;2023-07-16T01:32:44;14.20;1.00
29003;DHT22;16102;57.138;-2.118;2023-07-16T01:35:12;14.10;1.00
29003;DHT22;16102;57.138;-2.118;2023-07-16T01:37:41;14.00;1.00
29003;DHT22;16102;57.138;-2.118;2023-07-16T01:40:09;14.00;1.00
29003;DHT22;16102;57.138;-2.118;2023-07-16T01:42:36;14.00;1.00
29003;DHT22;16102;57.138;-2.118;2023-07-16T01:45:03;13.90;1.00
29003;DHT22;16102;57.138;-2.118;2023-07-16T01:47:42;13.90;1.00
29003;DHT22;16102;57.138;-2.118;2023-07-16T01:50:11;13.80;1.00
29003;DHT22;16102;57.138;-2.118;2023-07-16T01:52:38;13.70;1.00
29003;DHT22;16102;57.138;-2.118;2023-07-16T01:55:05;13.60;1.00
29003;DHT22;16102;57.138;-2.118;2023-07-16T01:57:32;13.60;1.00
29003;DHT22;16102;57.138;-2.118;2023-07-16T01:59:59;13.60;1.00
29003;DHT22;16102;57.138;-2.118;2023-07-16T02:02:26;13.50;1.00
29003;DHT22;16102;57.138;-2.118;2023-07-16T02:04:53;13.20;1.00
29003;DHT22;16102;57.138;-2.118;2023-07-16T02:07:20;13.30;3.90
29003;DHT22;16102;57.138;-2.118;2023-07-16T02:09:47;13.40;12.80
29003;DHT22;16102;57.138;-2.118;2023-07-16T02:12:14;13.30;13.30
29003;DHT22;16102;57.138;-2.118;2023-07-16T02:14:41;13.30;12.40
29003;DHT22;16102;57.138;-2.118;2023-07-16T02:17:08;13.40;21.40
29003;DHT22;16102;57.138;-2.118;2023-07-16T02:19:35;13.40;25.30
29003;DHT22;16102;57.138;-2.118;2023-07-16T02:22:01;13.40;23.80
29003;DHT22;16102;57.138;-2.118;2023-07-16T02:24:28;13.50;34.30
29003;DHT22;16102;57.138;-2.118;2023-07-16T02:26:55;13.70;35.40
29003;DHT22;16102;57.138;-2.118;2023-07-16T02:29:22;13.80;25.60
29003;DHT22;16102;57.138;-2.118;2023-07-16T02:31:49;13.80;10.50
29003;DHT22;16102;57.138;-2.118;2023-07-16T02:34:16;13.70;1.00
29003;DHT22;16102;57.138;-2.118;2023-07-16T02:36:43;13.80;1.00
29003;DHT22;16102;57.138;-2.118;2023-07-16T02:39:10;13.70;1.00
29003;DHT22;16102;57.138;-2.118;2023-07-16T02:41:37;13.40;1.00
29003;DHT22;16102;57.138;-2.118;2023-07-16T02:44:05;13.30;1.00
29003;DHT22;16102;57.138;-2.118;2023-07-16T02:46:32;13.40;4.50
29003;DHT22;16102;57.138;-2.118;2023-07-16T02:49:00;13.40;6.80
29003;DHT22;16102;57.138;-2.118;2023-07-16T02:51:27;13.30;10.20
29003;DHT22;16102;57.138;-2.118;2023-07-16T02:53:53;13.50;20.30
29003;DHT22;16102;57.138;-2.118;2023-07-16T02:56:20;13.60;16.60
29003;DHT22;16102;57.138;-2.118;2023-07-16T02:58:47;13.70;13.40
29003;DHT22;16102;57.138;-2.118;2023-07-16T03:01:14;13.90;3.60
29003;DHT22;16102;57.138;-2.118;2023-07-16T03:03:42;14.00;1.00
29003;DHT22;16102;57.138;-2.118;2023-07-16T03:06:09;14.10;1.00
29003;DHT22;16102;57.138;-2.118;2023-07-16T03:08:36;14.10;1.00
29003;DHT22;16102;57.138;-2.118;2023-07-16T03:11:03;13.80;1.00
29003;DHT22;16102;57.138;-2.118;2023-07-16T03:13:30;13.60;1.00
29003;DHT22;16102;57.138;-2.118;2023-07-16T03:15:57;13.60;1.00
29003;DHT22;16102;57.138;-2.118;2023-07-16T03:18:28;13.80;1.00
29003;DHT22;16102;57.138;-2.118;2023-07-16T03:20:57;13.80;1.00
29003;DHT22;16102;57.138;-2.118;2023-07-16T03:23:24;13.90;1.00
29003;DHT22;16102;57.138;-2.118;2023-07-16T03:25:52;14.10;1.00
29003;DHT22;16102;57.138;-2.118;2023-07-16T03:28:19;13.90;1.00
29003;DHT22;16102;57.138;-2.118;2023-07-16T03:30:48;14.00;1.00
29003;DHT22;16102;57.138;-2.118;2023-07-16T03:33:15;14.00;1.00
29003;DHT22;16102;57.138;-2.118;2023-07-16T03:35:43;14.00;1.00
29003;DHT22;16102;57.138;-2.118;2023-07-16T03:38:11;14.00;1.00
29003;DHT22;16102;57.138;-2.118;2023-07-16T03:40:38;13.80;1.00
29003;DHT22;16102;57.138;-2.118;2023-07-16T03:43:05;13.80;1.00
29003;DHT22;16102;57.138;-2.118;2023-07-16T03:45:32;13.80;1.00
29003;DHT22;16102;57.138;-2.118;2023-07-16T03:47:59;13.80;1.00
29003;DHT22;16102;57.138;-2.118;2023-07-16T03:50:26;13.90;1.00
29003;DHT22;16102;57.138;-2.118;2023-07-16T03:52:53;13.90;1.00
29003;DHT22;16102;57.138;-2.118;2023-07-16T03:55:20;14.10;3.90
29003;DHT22;16102;57.138;-2.118;2023-07-16T03:57:48;14.20;1.00
29003;DHT22;16102;57.138;-2.118;2023-07-16T04:00:14;14.20;1.00
29003;DHT22;16102;57.138;-2.118;2023-07-16T04:02:41;14.20;1.00
29003;DHT22;16102;57.138;-2.118;2023-07-16T04:05:09;14.30;1.00
29003;DHT22;16102;57.138;-2.118;2023-07-16T04:07:36;14.40;1.00
29003;DHT22;16102;57.138;-2.118;2023-07-16T04:10:03;14.40;1.00
29003;DHT22;16102;57.138;-2.118;2023-07-16T04:12:30;14.40;1.00
29003;DHT22;16102;57.138;-2.118;2023-07-16T04:14:58;14.20;1.00
29003;DHT22;16102;57.138;-2.118;2023-07-16T04:17:26;14.10;1.00
29003;DHT22;16102;57.138;-2.118;2023-07-16T04:19:53;14.10;1.00
29003;DHT22;16102;57.138;-2.118;2023-07-16T04:22:20;14.00;1.00
29003;DHT22;16102;57.138;-2.118;2023-07-16T04:24:47;13.90;1.00
29003;DHT22;16102;57.138;-2.118;2023-07-16T04:27:14;14.00;1.00
29003;DHT22;16102;57.138;-2.118;2023-07-16T04:29:41;14.00;1.00
29003;DHT22;16102;57.138;-2.118;2023-07-16T04:32:08;14.00;1.00
29003;DHT22;16102;57.138;-2.118;2023-07-16T04:34:35;14.10;1.00
29003;DHT22;16102;57.138;-2.118;2023-07-16T04:37:02;14.00;1.00
29003;DHT22;16102;57.138;-2.118;2023-07-16T04:39:29;13.90;1.00
29003;DHT22;16102;57.138;-2.118;2023-07-16T04:41:56;14.00;1.00
29003;DHT22;16102;57.138;-2.118;2023-07-16T04:44:23;14.00;1.00
29003;DHT22;16102;57.138;-2.118;2023-07-16T04:46:50;14.00;1.00
29003;DHT22;16102;57.138;-2.118;2023-07-16T04:49:17;14.00;1.00
29003;DHT22;16102;57.138;-2.118;2023-07-16T04:51:44;14.00;1.00
29003;DHT22;16102;57.138;-2.118;2023-07-16T04:54:11;14.00;1.00
29003;DHT22;16102;57.138;-2.118;2023-07-16T04:56:38;14.10;1.00
29003;DHT22;16102;57.138;-2.118;2023-07-16T04:59:05;14.00;1.00
29003;DHT22;16102;57.138;-2.118;2023-07-16T05:01:32;14.10;1.00
29003;DHT22;16102;57.138;-2.118;2023-07-16T05:03:59;14.30;1.00
29003;DHT22;16102;57.138;-2.118;2023-07-16T05:06:26;14.40;1.00
29003;DHT22;16102;57.138;-2.118;2023-07-16T05:08:53;14.50;1.00
29003;DHT22;16102;57.138;-2.118;2023-07-16T05:11:19;14.40;1.00
29003;DHT22;16102;57.138;-2.118;2023-07-16T05:13:46;14.20;1.00
29003;DHT22;16102;57.138;-2.118;2023-07-16T05:16:13;14.10;1.00
29003;DHT22;16102;57.138;-2.118;2023-07-16T05:18:41;14.20;1.00
29003;DHT22;16102;57.138;-2.118;2023-07-16T05:21:08;14.20;1.00
29003;DHT22;16102;57.138;-2.118;2023-07-16T05:23:35;14.10;1.00
29003;DHT22;16102;57.138;-2.118;2023-07-16T05:26:02;14.10;1.00
29003;DHT22;16102;57.138;-2.118;2023-07-16T05:28:28;14.10;1.00
29003;DHT22;16102;57.138;-2.118;2023-07-16T05:31:02;14.20;1.00
29003;DHT22;16102;57.138;-2.118;2023-07-16T05:33:29;14.30;1.00
29003;DHT22;16102;57.138;-2.118;2023-07-16T05:35:56;14.20;1.00
29003;DHT22;16102;57.138;-2.118;2023-07-16T05:38:23;14.20;1.00
29003;DHT22;16102;57.138;-2.118;2023-07-16T05:40:50;14.30;1.00
29003;DHT22;16102;57.138;-2.118;2023-07-16T05:43:17;14.40;1.00
29003;DHT22;16102;57.138;-2.118;2023-07-16T05:45:44;14.50;1.00
29003;DHT22;16102;57.138;-2.118;2023-07-16T05:48:11;14.60;1.00
29003;DHT22;16102;57.138;-2.118;2023-07-16T05:50:38;14.60;1.00
29003;DHT22;16102;57.138;-2.118;2023-07-16T05:53:05;14.70;1.00
29003;DHT22;16102;57.138;-2.118;2023-07-16T05:55:32;14.60;1.00
29003;DHT22;16102;57.138;-2.118;2023-07-16T05:57:59;14.60;1.00
29003;DHT22;16102;57.138;-2.118;2023-07-16T06:00:26;14.80;1.00
29003;DHT22;16102;57.138;-2.118;2023-07-16T06:02:53;14.70;1.00
29003;DHT22;16102;57.138;-2.118;2023-07-16T06:05:20;14.70;1.00
29003;DHT22;16102;57.138;-2.118;2023-07-16T06:07:47;14.80;1.00
29003;DHT22;16102;57.138;-2.118;2023-07-16T06:10:14;14.90;1.00
29003;DHT22;16102;57.138;-2.118;2023-07-16T06:12:41;14.80;1.00
29003;DHT22;16102;57.138;-2.118;2023-07-16T06:15:08;14.80;1.00
29003;DHT22;16102;57.138;-2.118;2023-07-16T06:17:35;14.70;5.30
29003;DHT22;16102;57.138;-2.118;2023-07-16T06:20:03;14.80;46.50
29003;DHT22;16102;57.138;-2.118;2023-07-16T06:22:30;14.70;40.50
29003;DHT22;16102;57.138;-2.118;2023-07-16T06:24:57;14.80;46.10
29003;DHT22;16102;57.138;-2.118;2023-07-16T06:27:24;14.70;38.20
29003;DHT22;16102;57.138;-2.118;2023-07-16T06:29:51;14.80;46.40
29003;DHT22;16102;57.138;-2.118;2023-07-16T06:32:18;14.80;45.70
29003;DHT22;16102;57.138;-2.118;2023-07-16T06:34:45;14.80;33.20
29003;DHT22;16102;57.138;-2.118;2023-07-16T06:37:12;14.80;26.80
29003;DHT22;16102;57.138;-2.118;2023-07-16T06:39:39;15.00;39.40
29003;DHT22;16102;57.138;-2.118;2023-07-16T06:42:06;15.00;28.40
29003;DHT22;16102;57.138;-2.118;2023-07-16T06:44:33;15.10;18.80
29003;DHT22;16102;57.138;-2.118;2023-07-16T06:47:00;15.00;1.00
29003;DHT22;16102;57.138;-2.118;2023-07-16T06:49:27;15.10;1.00
29003;DHT22;16102;57.138;-2.118;2023-07-16T06:51:54;15.10;1.00
29003;DHT22;16102;57.138;-2.118;2023-07-16T06:54:20;15.20;1.00
29003;DHT22;16102;57.138;-2.118;2023-07-16T06:56:47;15.40;1.00
29003;DHT22;16102;57.138;-2.118;2023-07-16T06:59:14;15.40;1.00
29003;DHT22;16102;57.138;-2.118;2023-07-16T07:01:41;15.60;1.00
29003;DHT22;16102;57.138;-2.118;2023-07-16T07:04:08;15.60;1.00
29003;DHT22;16102;57.138;-2.118;2023-07-16T07:06:35;15.80;1.00
29003;DHT22;16102;57.138;-2.118;2023-07-16T07:09:02;16.00;1.00
29003;DHT22;16102;57.138;-2.118;2023-07-16T07:11:29;16.10;1.00
29003;DHT22;16102;57.138;-2.118;2023-07-16T07:13:56;16.00;1.00
29003;DHT22;16102;57.138;-2.118;2023-07-16T07:16:24;16.00;1.00
29003;DHT22;16102;57.138;-2.118;2023-07-16T07:18:51;16.00;1.00
29003;DHT22;16102;57.138;-2.118;2023-07-16T07:21:18;16.10;1.00
29003;DHT22;16102;57.138;-2.118;2023-07-16T07:23:44;16.30;1.00
29003;DHT22;16102;57.138;-2.118;2023-07-16T07:26:11;16.30;1.00
29003;DHT22;16102;57.138;-2.118;2023-07-16T07:28:38;16.30;1.00
29003;DHT22;16102;57.138;-2.118;2023-07-16T07:31:05;16.40;1.00
29003;DHT22;16102;57.138;-2.118;2023-07-16T07:33:32;16.40;1.00
29003;DHT22;16102;57.138;-2.118;2023-07-16T07:35:59;16.40;1.00
29003;DHT22;16102;57.138;-2.118;2023-07-16T07:38:26;16.50;1.00
29003;DHT22;16102;57.138;-2.118;2023-07-16T07:40:53;16.40;1.00
29003;DHT22;16102;57.138;-2.118;2023-07-16T07:43:20;16.50;1.00
29003;DHT22;16102;57.138;-2.118;2023-07-16T07:45:47;16.60;1.00
29003;DHT22;16102;57.138;-2.118;2023-07-16T07:48:14;16.60;1.00
29003;DHT22;16102;57.138;-2.118;2023-07-16T07:50:41;16.80;1.00
29003;DHT22;16102;57.138;-2.118;2023-07-16T07:53:07;16.70;1.00
29003;DHT22;16102;57.138;-2.118;2023-07-16T07:55:34;16.80;1.00
29003;DHT22;16102;57.138;-2.118;2023-07-16T07:58:04;17.00;1.00
29003;DHT22;16102;57.138;-2.118;2023-07-16T08:00:31;16.90;1.00
29003;DHT22;16102;57.138;-2.118;2023-07-16T08:02:58;17.00;1.00
29003;DHT22;16102;57.138;-2.118;2023-07-16T08:05:25;17.00;1.00
29003;DHT22;16102;57.138;-2.118;2023-07-16T08:07:52;17.10;1.00
29003;DHT22;16102;57.138;-2.118;2023-07-16T08:10:20;17.10;1.00
29003;DHT22;16102;57.138;-2.118;2023-07-16T08:12:47;17.00;1.00
29003;DHT22;16102;57.138;-2.118;2023-07-16T08:15:14;17.10;1.00
29003;DHT22;16102;57.138;-2.118;2023-07-16T08:17:42;17.20;1.00
29003;DHT22;16102;57.138;-2.118;2023-07-16T08:20:10;17.10;1.00
29003;DHT22;16102;57.138;-2.118;2023-07-16T08:22:37;17.10;1.00
29003;DHT22;16102;57.138;-2.118;2023-07-16T08:25:06;17.30;1.00
29003;DHT22;16102;57.138;-2.118;2023-07-16T08:27:33;17.50;1.00
29003;DHT22;16102;57.138;-2.118;2023-07-16T08:30:00;17.70;1.00
29003;DHT22;16102;57.138;-2.118;2023-07-16T08:32:27;17.70;1.00
29003;DHT22;16102;57.138;-2.118;2023-07-16T08:34:54;17.70;1.00
29003;DHT22;16102;57.138;-2.118;2023-07-16T08:37:21;17.80;1.00
29003;DHT22;16102;57.138;-2.118;2023-07-16T08:39:51;17.80;1.00
29003;DHT22;16102;57.138;-2.118;2023-07-16T08:42:19;17.90;1.00
29003;DHT22;16102;57.138;-2.118;2023-07-16T08:44:48;18.10;1.00
29003;DHT22;16102;57.138;-2.118;2023-07-16T08:47:17;17.90;1.00
29003;DHT22;16102;57.138;-2.118;2023-07-16T08:49:54;17.80;1.00
29003;DHT22;16102;57.138;-2.118;2023-07-16T08:52:22;17.80;1.00
29003;DHT22;16102;57.138;-2.118;2023-07-16T08:54:49;18.10;1.00
29003;DHT22;16102;57.138;-2.118;2023-07-16T08:57:17;18.00;1.00
29003;DHT22;16102;57.138;-2.118;2023-07-16T08:59:47;18.10;1.00
29003;DHT22;16102;57.138;-2.118;2023-07-16T09:02:17;18.40;1.00
29003;DHT22;16102;57.138;-2.118;2023-07-16T09:04:48;18.40;1.00
29003;DHT22;16102;57.138;-2.118;2023-07-16T09:07:15;18.20;1.00
29003;DHT22;16102;57.138;-2.118;2023-07-16T09:09:42;18.40;1.00
29003;DHT22;16102;57.138;-2.118;2023-07-16T09:12:12;18.50;1.00
29003;DHT22;16102;57.138;-2.118;2023-07-16T09:14:42;18.60;1.00
29003;DHT22;16102;57.138;-2.118;2023-07-16T09:17:10;18.70;1.00
29003;DHT22;16102;57.138;-2.118;2023-07-16T09:19:37;18.50;1.00
29003;DHT22;16102;57.138;-2.118;2023-07-16T09:22:04;18.30;1.00
29003;DHT22;16102;57.138;-2.118;2023-07-16T09:24:32;18.00;26.00
29003;DHT22;16102;57.138;-2.118;2023-07-16T09:26:59;17.50;99.90
29003;DHT22;16102;57.138;-2.118;2023-07-16T09:29:29;17.10;99.90
29003;DHT22;16102;57.138;-2.118;2023-07-16T09:32:00;17.00;99.90
29003;DHT22;16102;57.138;-2.118;2023-07-16T09:34:30;17.00;99.90
29003;DHT22;16102;57.138;-2.118;2023-07-16T09:36:58;17.10;99.90
29003;DHT22;16102;57.138;-2.118;2023-07-16T09:39:25;17.20;99.90
29003;DHT22;16102;57.138;-2.118;2023-07-16T09:41:53;17.30;99.90
29003;DHT22;16102;57.138;-2.118;2023-07-16T09:44:20;17.30;84.60
29003;DHT22;16102;57.138;-2.118;2023-07-16T09:46:47;17.50;99.90
29003;DHT22;16102;57.138;-2.118;2023-07-16T09:49:15;17.50;1.50
29003;DHT22;16102;57.138;-2.118;2023-07-16T09:51:43;17.60;1.00
29003;DHT22;16102;57.138;-2.118;2023-07-16T09:54:14;17.80;15.60
29003;DHT22;16102;57.138;-2.118;2023-07-16T09:56:48;17.90;7.30
29003;DHT22;16102;57.138;-2.118;2023-07-16T09:59:19;17.90;1.00
29003;DHT22;16102;57.138;-2.118;2023-07-16T10:01:47;18.00;1.00
29003;DHT22;16102;57.138;-2.118;2023-07-16T10:04:16;17.80;1.00
29003;DHT22;16102;57.138;-2.118;2023-07-16T10:06:58;17.80;1.00
29003;DHT22;16102;57.138;-2.118;2023-07-16T10:09:39;17.70;1.00
29003;DHT22;16102;57.138;-2.118;2023-07-16T10:12:16;17.70;1.00
29003;DHT22;16102;57.138;-2.118;2023-07-16T10:14:52;18.00;1.00
29003;DHT22;16102;57.138;-2.118;2023-07-16T10:17:21;18.00;1.00
29003;DHT22;16102;57.138;-2.118;2023-07-16T10:20:09;18.20;1.00
29003;DHT22;16102;57.138;-2.118;2023-07-16T10:22:41;18.30;1.00
29003;DHT22;16102;57.138;-2.118;2023-07-16T10:27:45;18.70;1.00
29003;DHT22;16102;57.138;-2.118;2023-07-16T10:30:13;19.00;1.00
29003;DHT22;16102;57.138;-2.118;2023-07-16T10:32:40;19.10;1.00
29003;DHT22;16102;57.138;-2.118;2023-07-16T10:35:09;19.30;1.00
29003;DHT22;16102;57.138;-2.118;2023-07-16T10:37:36;19.40;1.00
29003;DHT22;16102;57.138;-2.118;2023-07-16T10:40:04;19.60;1.00
29003;DHT22;16102;57.138;-2.118;2023-07-16T10:42:32;19.80;1.00
29003;DHT22;16102;57.138;-2.118;2023-07-16T10:45:03;20.00;1.00
29003;DHT22;16102;57.138;-2.118;2023-07-16T10:47:35;19.70;1.00
29003;DHT22;16102;57.138;-2.118;2023-07-16T10:50:05;19.80;1.00
29003;DHT22;16102;57.138;-2.118;2023-07-16T10:52:32;19.70;1.00
29003;DHT22;16102;57.138;-2.118;2023-07-16T10:54:59;20.00;1.00
29003;DHT22;16102;57.138;-2.118;2023-07-16T10:57:27;19.90;1.00
29003;DHT22;16102;57.138;-2.118;2023-07-16T10:59:56;20.30;1.00
29003;DHT22;16102;57.138;-2.118;2023-07-16T11:02:24;20.80;1.00
29003;DHT22;16102;57.138;-2.118;2023-07-16T11:04:52;20.90;1.00
29003;DHT22;16102;57.138;-2.118;2023-07-16T11:07:21;21.10;99.90
29003;DHT22;16102;57.138;-2.118;2023-07-16T11:09:53;19.60;99.90
29003;DHT22;16102;57.138;-2.118;2023-07-16T11:12:24;19.00;99.90
29003;DHT22;16102;57.138;-2.118;2023-07-16T11:14:53;18.60;99.90
29003;DHT22;16102;57.138;-2.118;2023-07-16T11:17:24;18.60;99.90
29003;DHT22;16102;57.138;-2.118;2023-07-16T11:19:55;18.80;99.90
29003;DHT22;16102;57.138;-2.118;2023-07-16T11:22:26;18.80;99.90
29003;DHT22;16102;57.138;-2.118;2023-07-16T11:24:54;19.10;99.90
29003;DHT22;16102;57.138;-2.118;2023-07-16T11:27:27;19.30;99.90
29003;DHT22;16102;57.138;-2.118;2023-07-16T11:29:56;19.40;86.00
29003;DHT22;16102;57.138;-2.118;2023-07-16T11:32:27;19.70;95.40
29003;DHT22;16102;57.138;-2.118;2023-07-16T11:34:55;20.20;82.20
29003;DHT22;16102;57.138;-2.118;2023-07-16T11:37:24;20.80;94.70
29003;DHT22;16102;57.138;-2.118;2023-07-16T11:39:55;21.40;17.10
29003;DHT22;16102;57.138;-2.118;2023-07-16T11:42:24;21.80;1.00
29003;DHT22;16102;57.138;-2.118;2023-07-16T11:44:54;22.10;1.00
29003;DHT22;16102;57.138;-2.118;2023-07-16T11:47:22;22.20;1.00
29003;DHT22;16102;57.138;-2.118;2023-07-16T11:49:49;22.20;1.00
29003;DHT22;16102;57.138;-2.118;2023-07-16T11:52:27;22.10;1.00
29003;DHT22;16102;57.138;-2.118;2023-07-16T11:54:57;22.00;1.00
29003;DHT22;16102;57.138;-2.118;2023-07-16T11:57:27;22.00;1.00
29003;DHT22;16102;57.138;-2.118;2023-07-16T11:59:54;21.60;1.00
29003;DHT22;16102;57.138;-2.118;2023-07-16T12:02:21;21.20;1.00
29003;DHT22;16102;57.138;-2.118;2023-07-16T12:04:48;20.90;1.00
29003;DHT22;16102;57.138;-2.118;2023-07-16T12:07:29;20.50;1.00
29003;DHT22;16102;57.138;-2.118;2023-07-16T12:09:56;20.20;1.00
29003;DHT22;16102;57.138;-2.118;2023-07-16T12:12:23;19.00;1.00
29003;DHT22;16102;57.138;-2.118;2023-07-16T12:14:51;18.60;1.00
29003;DHT22;16102;57.138;-2.118;2023-07-16T12:17:18;18.30;1.00
29003;DHT22;16102;57.138;-2.118;2023-07-16T12:19:45;18.50;1.00
29003;DHT22;16102;57.138;-2.118;2023-07-16T12:22:12;18.90;1.00
29003;DHT22;16102;57.138;-2.118;2023-07-16T12:24:41;19.30;1.00
29003;DHT22;16102;57.138;-2.118;2023-07-16T12:27:09;19.90;1.00
29003;DHT22;16102;57.138;-2.118;2023-07-16T12:29:36;20.70;1.00
29003;DHT22;16102;57.138;-2.118;2023-07-16T12:32:03;21.80;1.00
29003;DHT22;16102;57.138;-2.118;2023-07-16T12:34:30;22.60;1.00
29003;DHT22;16102;57.138;-2.118;2023-07-16T12:36:57;23.20;1.00
29003;DHT22;16102;57.138;-2.118;2023-07-16T12:39:24;23.80;1.00
29003;DHT22;16102;57.138;-2.118;2023-07-16T12:41:51;24.00;1.00
29003;DHT22;16102;57.138;-2.118;2023-07-16T12:44:18;24.20;1.00
29003;DHT22;16102;57.138;-2.118;2023-07-16T12:46:45;24.80;1.00
29003;DHT22;16102;57.138;-2.118;2023-07-16T12:49:12;24.70;1.00
29003;DHT22;16102;57.138;-2.118;2023-07-16T12:51:39;23.70;99.90
29003;DHT22;16102;57.138;-2.118;2023-07-16T12:54:06;23.10;99.90
29003;DHT22;16102;57.138;-2.118;2023-07-16T12:56:33;22.40;99.90
29003;DHT22;16102;57.138;-2.118;2023-07-16T12:58:59;22.30;99.90
29003;DHT22;16102;57.138;-2.118;2023-07-16T13:01:26;22.70;99.90
29003;DHT22;16102;57.138;-2.118;2023-07-16T13:03:54;22.40;99.90
29003;DHT22;16102;57.138;-2.118;2023-07-16T13:06:20;21.80;99.90
29003;DHT22;16102;57.138;-2.118;2023-07-16T13:08:47;21.70;1.00
29003;DHT22;16102;57.138;-2.118;2023-07-16T13:11:14;21.50;1.00
29003;DHT22;16102;57.138;-2.118;2023-07-16T13:13:41;21.20;99.90
29003;DHT22;16102;57.138;-2.118;2023-07-16T13:16:10;20.60;99.90
29003;DHT22;16102;57.138;-2.118;2023-07-16T13:18:37;20.90;1.00
29003;DHT22;16102;57.138;-2.118;2023-07-16T13:21:04;21.90;1.00
29003;DHT22;16102;57.138;-2.118;2023-07-16T13:23:31;22.90;99.90
29003;DHT22;16102;57.138;-2.118;2023-07-16T13:25:58;23.80;99.90
29003;DHT22;16102;57.138;-2.118;2023-07-16T13:28:25;23.10;99.90
29003;DHT22;16102;57.138;-2.118;2023-07-16T13:30:53;23.50;99.90
29003;DHT22;16102;57.138;-2.118;2023-07-16T13:33:20;23.60;99.90
29003;DHT22;16102;57.138;-2.118;2023-07-16T13:35:47;23.40;99.90
29003;DHT22;16102;57.138;-2.118;2023-07-16T13:38:14;23.90;99.90
29003;DHT22;16102;57.138;-2.118;2023-07-16T13:40:41;25.10;99.90
29003;DHT22;16102;57.138;-2.118;2023-07-16T13:43:08;24.00;99.90
29003;DHT22;16102;57.138;-2.118;2023-07-16T13:45:35;23.20;99.90
29003;DHT22;16102;57.138;-2.118;2023-07-16T13:48:02;22.70;99.90
29003;DHT22;16102;57.138;-2.118;2023-07-16T13:50:29;22.20;99.90
29003;DHT22;16102;57.138;-2.118;2023-07-16T13:52:56;22.10;99.90
29003;DHT22;16102;57.138;-2.118;2023-07-16T13:55:23;21.70;99.90
29003;DHT22;16102;57.138;-2.118;2023-07-16T13:57:50;21.20;99.90
29003;DHT22;16102;57.138;-2.118;2023-07-16T14:00:17;21.10;99.90
29003;DHT22;16102;57.138;-2.118;2023-07-16T14:02:44;21.20;99.90
29003;DHT22;16102;57.138;-2.118;2023-07-16T14:05:12;20.90;99.90
29003;DHT22;16102;57.138;-2.118;2023-07-16T14:07:39;20.60;99.90
29003;DHT22;16102;57.138;-2.118;2023-07-16T14:10:06;20.80;99.90
29003;DHT22;16102;57.138;-2.118;2023-07-16T14:12:33;21.00;99.90
29003;DHT22;16102;57.138;-2.118;2023-07-16T14:15:01;21.20;99.90
29003;DHT22;16102;57.138;-2.118;2023-07-16T14:17:28;21.70;99.90
29003;DHT22;16102;57.138;-2.118;2023-07-16T14:19:55;22.00;99.90
29003;DHT22;16102;57.138;-2.118;2023-07-16T14:22:21;22.30;99.90
29003;DHT22;16102;57.138;-2.118;2023-07-16T14:24:53;22.40;99.90
29003;DHT22;16102;57.138;-2.118;2023-07-16T14:27:20;22.40;99.90
29003;DHT22;16102;57.138;-2.118;2023-07-16T14:29:47;22.30;99.90
29003;DHT22;16102;57.138;-2.118;2023-07-16T14:32:30;22.20;99.90
29003;DHT22;16102;57.138;-2.118;2023-07-16T14:34:59;22.00;99.90
29003;DHT22;16102;57.138;-2.118;2023-07-16T14:37:27;21.80;99.90
29003;DHT22;16102;57.138;-2.118;2023-07-16T14:39:54;21.30;99.90
29003;DHT22;16102;57.138;-2.118;2023-07-16T14:42:20;21.20;99.90
29003;DHT22;16102;57.138;-2.118;2023-07-16T14:44:47;21.20;99.90
29003;DHT22;16102;57.138;-2.118;2023-07-16T14:47:14;21.40;99.90
29003;DHT22;16102;57.138;-2.118;2023-07-16T14:49:42;21.20;99.90
29003;DHT22;16102;57.138;-2.118;2023-07-16T14:52:09;21.00;99.90
29003;DHT22;16102;57.138;-2.118;2023-07-16T14:54:36;20.70;99.90
29003;DHT22;16102;57.138;-2.118;2023-07-16T14:57:03;20.60;99.90
29003;DHT22;16102;57.138;-2.118;2023-07-16T14:59:30;20.60;99.90
29003;DHT22;16102;57.138;-2.118;2023-07-16T15:01:57;20.50;99.90
29003;DHT22;16102;57.138;-2.118;2023-07-16T15:04:25;20.20;99.90
29003;DHT22;16102;57.138;-2.118;2023-07-16T15:06:52;20.20;99.90
29003;DHT22;16102;57.138;-2.118;2023-07-16T15:09:19;19.90;99.90
29003;DHT22;16102;57.138;-2.118;2023-07-16T15:11:46;19.70;99.90
29003;DHT22;16102;57.138;-2.118;2023-07-16T15:14:13;19.80;99.90
29003;DHT22;16102;57.138;-2.118;2023-07-16T15:16:42;20.10;99.90
29003;DHT22;16102;57.138;-2.118;2023-07-16T15:19:09;19.90;99.90
29003;DHT22;16102;57.138;-2.118;2023-07-16T15:21:37;19.80;99.90
29003;DHT22;16102;57.138;-2.118;2023-07-16T15:24:06;19.80;99.90
29003;DHT22;16102;57.138;-2.118;2023-07-16T15:26:33;19.90;99.90
29003;DHT22;16102;57.138;-2.118;2023-07-16T15:29:00;19.80;99.90
29003;DHT22;16102;57.138;-2.118;2023-07-16T15:31:27;19.80;99.90
29003;DHT22;16102;57.138;-2.118;2023-07-16T15:33:55;19.70;99.90
29003;DHT22;16102;57.138;-2.118;2023-07-16T15:36:25;19.70;99.90